Time;durP1;ratioP1;P1;durP2;ratioP2;P2;SDS_P1;SDS_P2;PMS_P1;PMS_P2;Temp;Humidity;BMP_temperature;BMP_pressure;BME280_temperature;BME280_humidity;BME280_pressure;Samples;Min_cycle;Max_cycle;Signal;HPM_P1;HPM_P2
2021/04/24 00:00:51;;;;;;;;;;;;;;;;;;1466456;40;8009;-61
2021/04/24 00:01:53;;;;;;;;;;;;;;;;;;1466589;40;7064;-60
2021/04/24 00:02:55;;;;;;;;;;;;;;;;;;1466732;40;7036;-61
2021/04/24 00:03:58;;;;;;;;;;;;;;;;;;1466942;40;6996;-61
2021/04/24 00:05:00;;;;;;;;;;;;;;;;;;1466629;40;7083;-62
2021/04/24 00:06:02;;;;;;;;;;;;;;;;;;1466562;40;7250;-60
2021/04/24 00:07:06;;;;;;;;;;;;;;;;;;1470020;40;7123;-61
2021/04/24 00:08:09;;;;;;;;;;;;;;;;;;1469978;40;7935;-61
2021/04/24 00:09:11;;;;;;;;;;;;;;;;;;1469994;40;7199;-61
2021/04/24 00:10:15;;;;;;;;;;;;;;;;;;1469945;40;7906;-61
2021/04/24 00:11:17;;;;;;;;;;;;;;;;;;1466645;40;7028;-61
2021/04/24 00:12:19;;;;;;;;;;;;;;;;;;1466556;40;7032;-61
2021/04/24 00:13:21;;;;;;;;;;;;;;;;;;1466813;40;6992;-61
2021/04/24 00:14:23;;;;;;;;;;;;;;;;;;1465995;40;7845;-62
2021/04/24 00:15:26;;;;;;;;;;;;;;;;;;1465495;40;7036;-62
2021/04/24 00:16:28;;;;;;;;;;;;;;;;;;1466185;40;7008;-61
2021/04/24 00:17:30;;;;;;;;;;;;;;;;;;1466143;40;7047;-62
2021/04/24 00:18:33;;;;;;;;;;;;;;;;;;1466300;40;7008;-61
2021/04/24 00:19:35;;;;;;;;;;;;;;;;;;1465989;40;8341;-61
2021/04/24 00:20:37;;;;;;;;;;;;;;;;;;1466125;40;6999;-61
2021/04/24 00:21:39;;;;;;;;;;;;;;;;;;1466086;40;7936;-61
2021/04/24 00:22:42;;;;;;;;;;;;;;;;;;1466158;40;7080;-62
2021/04/24 00:23:44;;;;;;;;;;;;;;;;;;1466368;40;6984;-61
2021/04/24 00:24:46;;;;;;;;;;;;;;;;;;1466285;40;7001;-61
2021/04/24 00:25:48;;;;;;;;;;;;;;;;;;1466492;40;7031;-61
2021/04/24 00:26:50;;;;;;;;;;;;;;;;;;1465789;40;7019;-61
2021/04/24 00:27:52;;;;;;;;;;;;;;;;;;1466027;40;7951;-61
2021/04/24 00:28:54;;;;;;;;;;;;;;;;;;1466289;40;7000;-61
2021/04/24 00:29:56;;;;;;;;;;;;;;;;;;1466306;40;6999;-61
2021/04/24 00:30:58;;;;;;;;;;;;;;;;;;1466496;40;7000;-61
2021/04/24 00:32:01;;;;;;;;;;;;;;;;;;1466115;40;7008;-61
2021/04/24 00:33:04;;;;;;;;;;;;;;;;;;1465997;40;7001;-61
2021/04/24 00:34:07;;;;;;;;;;;;;;;;;;1466473;40;6992;-60
2021/04/24 00:35:09;;;;;;;;;;;;;;;;;;1466776;40;7003;-61
2021/04/24 00:36:12;;;;;;;;;;;;;;;;;;1466093;40;6992;-60
2021/04/24 00:37:15;;;;;;;;;;;;;;;;;;1466679;40;6999;-61
2021/04/24 00:38:17;;;;;;;;;;;;;;;;;;1466795;40;7111;-61
2021/04/24 00:39:19;;;;;;;;;;;;;;;;;;1466835;40;7040;-61
2021/04/24 00:40:21;;;;;;;;;;;;;;;;;;1465822;40;7083;-61
2021/04/24 00:41:23;;;;;;;;;;;;;;;;;;1466243;40;8224;-61
2021/04/24 00:42:25;;;;;;;;;;;;;;;;;;1466411;40;7128;-61
2021/04/24 00:43:27;;;;;;;;;;;;;;;;;;1466753;40;7960;-61
2021/04/24 00:44:29;;;;;;;;;;;;;;;;;;1466887;40;7067;-61
2021/04/24 00:45:31;;;;;;;;;;;;;;;;;;1467239;40;7031;-61
2021/04/24 00:46:33;;;;;;;;;;;;;;;;;;1466937;40;7939;-61
2021/04/24 00:47:35;;;;;;;;;;;;;;;;;;1467165;40;7008;-61
2021/04/24 00:48:38;;;;;;;;;;;;;;;;;;1467498;40;6996;-61
2021/04/24 00:49:40;;;;;;;;;;;;;;;;;;1467264;40;6999;-62
2021/04/24 00:50:42;;;;;;;;;;;;;;;;;;1467072;40;7023;-61
2021/04/24 00:51:44;;;;;;;;;;;;;;;;;;1467255;40;7183;-62
2021/04/24 00:52:46;;;;;;;;;;;;;;;;;;1467005;40;7144;-61
2021/04/24 00:53:48;;;;;;;;;;;;;;;;;;1467200;40;6999;-61
2021/04/24 00:54:50;;;;;;;;;;;;;;;;;;1467053;40;7919;-62
2021/04/24 00:55:52;;;;;;;;;;;;;;;;;;1466955;40;6988;-61
2021/04/24 00:56:54;;;;;;;;;;;;;;;;;;1466824;40;7822;-61
2021/04/24 00:57:57;;;;;;;;;;;;;;;;;;1467250;40;7027;-61
2021/04/24 00:59:00;;;;;;;;;;;;;;;;;;1467259;40;7052;-61
2021/04/24 01:00:04;;;;;;;;;;;;;;;;;;1466624;40;7067;-61
2021/04/24 01:01:05;;;;;;;;;;;;;;;;;;1466884;40;6991;-62
2021/04/24 01:02:09;;;;;;;;;;;;;;;;;;1467031;40;7000;-61
2021/04/24 01:03:11;;;;;;;;;;;;;;;;;;1467253;40;7146;-61
2021/04/24 01:04:13;;;;;;;;;;;;;;;;;;1467280;40;7023;-60
2021/04/24 01:05:17;;;;;;;;;;;;;;;;;;1467036;40;7032;-60
2021/04/24 01:06:19;;;;;;;;;;;;;;;;;;1466859;40;6992;-61
2021/04/24 01:07:21;;;;;;;;;;;;;;;;;;1467151;40;7012;-61
2021/04/24 01:08:23;;;;;;;;;;;;;;;;;;1467242;40;7023;-61
2021/04/24 01:09:26;;;;;;;;;;;;;;;;;;1467266;40;7584;-61
2021/04/24 01:10:30;;;;;;;;;;;;;;;;;;1467290;40;7897;-61
2021/04/24 01:11:32;;;;;;;;;;;;;;;;;;1467159;40;6999;-61
2021/04/24 01:12:34;;;;;;;;;;;;;;;;;;1466703;40;7892;-61
2021/04/24 01:13:36;;;;;;;;;;;;;;;;;;1467268;40;7232;-60
2021/04/24 01:14:38;;;;;;;;;;;;;;;;;;1467156;40;7008;-60
2021/04/24 01:15:41;;;;;;;;;;;;;;;;;;1466610;40;8056;-60
2021/04/24 01:16:43;;;;;;;;;;;;;;;;;;1466545;40;7024;-60
2021/04/24 01:17:45;;;;;;;;;;;;;;;;;;1466465;40;7047;-60
2021/04/24 01:18:48;;;;;;;;;;;;;;;;;;1466430;40;7075;-60
2021/04/24 01:19:50;;;;;;;;;;;;;;;;;;1466621;40;7123;-60
2021/04/24 01:20:56;;;;;;;;;;;;;;;;;;1466795;40;6992;-61
2021/04/24 01:22:02;;;;;;;;;;;;;;;;;;1466455;40;6999;-60
2021/04/24 01:23:06;;;;;;;;;;;;;;;;;;1466840;40;7035;-60
2021/04/24 01:24:09;;;;;;;;;;;;;;;;;;1466782;40;8301;-61
2021/04/24 01:25:14;;;;;;;;;;;;;;;;;;1466796;40;7084;-60
2021/04/24 01:26:16;;;;;;;;;;;;;;;;;;1466259;40;7211;-60
2021/04/24 01:27:19;;;;;;;;;;;;;;;;;;1466311;40;7031;-60
2021/04/24 01:28:21;;;;;;;;;;;;;;;;;;1466935;40;7104;-59
2021/04/24 01:29:24;;;;;;;;;;;;;;;;;;1467144;40;7069;-59
2021/04/24 01:30:31;;;;;;;;;;;;;;;;;;1467388;40;7023;-60
2021/04/24 01:31:37;;;;;;;;;;;;;;;;;;1466961;40;6999;-61
2021/04/24 01:32:39;;;;;;;;;;;;;;;;;;1466265;40;7886;-60
2021/04/24 01:33:42;;;;;;;;;;;;;;;;;;1466182;40;7031;-60
2021/04/24 01:34:44;;;;;;;;;;;;;;;;;;1466910;40;7895;-60
2021/04/24 01:35:46;;;;;;;;;;;;;;;;;;1466760;40;7035;-60
2021/04/24 01:36:48;;;;;;;;;;;;;;;;;;1467010;40;7873;-60
2021/04/24 01:37:51;;;;;;;;;;;;;;;;;;1467122;40;7027;-61
2021/04/24 01:38:53;;;;;;;;;;;;;;;;;;1467214;40;7031;-60
2021/04/24 01:39:55;;;;;;;;;;;;;;;;;;1466689;40;7000;-61
2021/04/24 01:40:56;;;;;;;;;;;;;;;;;;1467157;40;7000;-60
2021/04/24 01:41:58;;;;;;;;;;;;;;;;;;1466862;40;7032;-60
2021/04/24 01:43:06;;;;;;;;;;;;;;;;;;1467109;40;7031;-60
2021/04/24 01:44:08;;;;;;;;;;;;;;;;;;1466835;40;6988;-60
2021/04/24 01:45:11;;;;;;;;;;;;;;;;;;1467270;40;7102;-60
2021/04/24 01:46:14;;;;;;;;;;;;;;;;;;1466821;40;7832;-60
2021/04/24 01:47:16;;;;;;;;;;;;;;;;;;1466842;40;7123;-61
2021/04/24 01:48:18;;;;;;;;;;;;;;;;;;1466748;40;7846;-60
2021/04/24 01:49:20;;;;;;;;;;;;;;;;;;1467082;40;7322;-60
2021/04/24 01:50:26;;;;;;;;;;;;;;;;;;1466747;40;7027;-60
2021/04/24 01:51:28;;;;;;;;;;;;;;;;;;1466830;40;7137;-60
2021/04/24 01:52:31;;;;;;;;;;;;;;;;;;1466883;40;7107;-60
2021/04/24 01:53:33;;;;;;;;;;;;;;;;;;1466974;40;7040;-60
2021/04/24 01:54:35;;;;;;;;;;;;;;;;;;1466602;40;7067;-60
2021/04/24 01:55:40;;;;;;;;;;;;;;;;;;1467091;40;6988;-60
2021/04/24 01:56:52;;;;;;;;;;;;;;;;;;1466989;40;7049;-60
2021/04/24 01:57:55;;;;;;;;;;;;;;;;;;1467179;40;7006;-60
2021/04/24 01:58:57;;;;;;;;;;;;;;;;;;1466998;40;6991;-61
2021/04/24 01:59:59;;;;;;;;;;;;;;;;;;1466983;40;7019;-60
2021/04/24 02:01:03;;;;;;;;;;;;;;;;;;1466929;40;7000;-60
2021/04/24 02:02:05;;;;;;;;;;;;;;;;;;1466789;40;7849;-61
2021/04/24 02:03:09;;;;;;;;;;;;;;;;;;1466838;40;8935;-60
2021/04/24 02:04:10;;;;;;;;;;;;;;;;;;1467056;40;7925;-60
2021/04/24 02:05:14;;;;;;;;;;;;;;;;;;1466923;40;7027;-60
2021/04/24 02:06:16;;;;;;;;;;;;;;;;;;1466961;40;7149;-60
2021/04/24 02:07:18;;;;;;;;;;;;;;;;;;1466829;40;6992;-60
2021/04/24 02:08:25;;;;;;;;;;;;;;;;;;1466939;40;7918;-60
2021/04/24 02:09:26;;;;;;;;;;;;;;;;;;1466879;40;7852;-60
2021/04/24 02:10:29;;;;;;;;;;;;;;;;;;1466841;40;6991;-60
2021/04/24 02:11:30;;;;;;;;;;;;;;;;;;1466788;40;8306;-60
2021/04/24 02:12:33;;;;;;;;;;;;;;;;;;1466949;40;7004;-59
2021/04/24 02:13:37;;;;;;;;;;;;;;;;;;1466890;40;7031;-60
2021/04/24 02:14:44;;;;;;;;;;;;;;;;;;1466973;40;7179;-60
2021/04/24 02:15:47;;;;;;;;;;;;;;;;;;1470319;40;6992;-60
2021/04/24 02:16:49;;;;;;;;;;;;;;;;;;1470156;40;7000;-61
2021/04/24 02:17:51;;;;;;;;;;;;;;;;;;1466469;40;7090;-60
2021/04/24 02:18:53;;;;;;;;;;;;;;;;;;1466577;40;7011;-60
2021/04/24 02:19:55;;;;;;;;;;;;;;;;;;1466903;40;7175;-60
2021/04/24 02:20:57;;;;;;;;;;;;;;;;;;1466986;40;7005;-60
2021/04/24 02:21:59;;;;;;;;;;;;;;;;;;1466520;40;7028;-60
2021/04/24 02:23:02;;;;;;;;;;;;;;;;;;1466680;40;7179;-60
2021/04/24 02:24:04;;;;;;;;;;;;;;;;;;1466543;40;7035;-60
2021/04/24 02:25:07;;;;;;;;;;;;;;;;;;1466654;40;7901;-60
2021/04/24 02:26:09;;;;;;;;;;;;;;;;;;1466559;40;7027;-60
2021/04/24 02:27:12;;;;;;;;;;;;;;;;;;1466583;40;7117;-61
2021/04/24 02:28:14;;;;;;;;;;;;;;;;;;1462227;40;7851;-60
2021/04/24 02:29:16;;;;;;;;;;;;;;;;;;1462538;40;7044;-60
2021/04/24 02:30:20;;;;;;;;;;;;;;;;;;1462601;40;8307;-60
2021/04/24 02:31:22;;;;;;;;;;;;;;;;;;1462935;40;7913;-60
2021/04/24 02:32:31;;;;;;;;;;;;;;;;;;1462271;40;7063;-60
2021/04/24 02:33:33;;;;;;;;;;;;;;;;;;1461783;40;7021;-60
2021/04/24 02:34:39;;;;;;;;;;;;;;;;;;1462328;40;6991;-59
2021/04/24 02:35:44;;;;;;;;;;;;;;;;;;1462772;40;7192;-60
2021/04/24 02:36:46;;;;;;;;;;;;;;;;;;1462710;40;7036;-60
2021/04/24 02:37:49;;;;;;;;;;;;;;;;;;1462906;40;7195;-60
2021/04/24 02:38:52;;;;;;;;;;;;;;;;;;1462513;40;7052;-61
2021/04/24 02:39:54;;;;;;;;;;;;;;;;;;1462830;40;7032;-60
2021/04/24 02:40:58;;;;;;;;;;;;;;;;;;1462861;40;7908;-60
2021/04/24 02:42:00;;;;;;;;;;;;;;;;;;1462601;40;6992;-60
2021/04/24 02:43:03;;;;;;;;;;;;;;;;;;1462587;40;6999;-61
2021/04/24 02:44:05;;;;;;;;;;;;;;;;;;1466338;40;7980;-61
2021/04/24 02:45:09;;;;;;;;;;;;;;;;;;1466012;40;7882;-60
2021/04/24 02:46:11;;;;;;;;;;;;;;;;;;1462832;40;7020;-60
2021/04/24 02:47:13;;;;;;;;;;;;;;;;;;1462876;40;7023;-60
2021/04/24 02:48:16;;;;;;;;;;;;;;;;;;1463034;40;8037;-60
2021/04/24 02:49:18;;;;;;;;;;;;;;;;;;1462902;40;7937;-60
2021/04/24 02:50:20;;;;;;;;;;;;;;;;;;1463162;40;6992;-60
2021/04/24 02:51:22;;;;;;;;;;;;;;;;;;1462863;40;7914;-60
2021/04/24 02:52:24;;;;;;;;;;;;;;;;;;1462376;40;8003;-59
2021/04/24 02:53:27;;;;;;;;;;;;;;;;;;1462921;40;7117;-60
2021/04/24 02:54:29;;;;;;;;;;;;;;;;;;1462618;40;7001;-60
2021/04/24 02:55:32;;;;;;;;;;;;;;;;;;1462958;40;6996;-60
2021/04/24 02:56:34;;;;;;;;;;;;;;;;;;1462745;40;7105;-60
2021/04/24 02:57:36;;;;;;;;;;;;;;;;;;1462613;40;7904;-60
2021/04/24 02:58:39;;;;;;;;;;;;;;;;;;1462935;40;7059;-60
2021/04/24 02:59:41;;;;;;;;;;;;;;;;;;1462613;40;7023;-60
2021/04/24 03:00:43;;;;;;;;;;;;;;;;;;1462580;40;7001;-60
2021/04/24 03:01:45;;;;;;;;;;;;;;;;;;1462552;40;6991;-60
2021/04/24 03:02:58;;;;;;;;;;;;;;;;;;1462821;40;7020;-60
2021/04/24 03:04:00;;;;;;;;;;;;;;;;;;1462440;40;7111;-61
2021/04/24 03:05:02;;;;;;;;;;;;;;;;;;1462512;40;7820;-60
2021/04/24 03:06:04;;;;;;;;;;;;;;;;;;1462411;40;7005;-60
2021/04/24 03:07:06;;;;;;;;;;;;;;;;;;1462870;40;7031;-60
2021/04/24 03:08:09;;;;;;;;;;;;;;;;;;1462514;40;7161;-60
2021/04/24 03:09:11;;;;;;;;;;;;;;;;;;1462884;40;8017;-60
2021/04/24 03:10:13;;;;;;;;;;;;;;;;;;1462752;40;6988;-61
2021/04/24 03:11:15;;;;;;;;;;;;;;;;;;1462833;40;6997;-60
2021/04/24 03:12:17;;;;;;;;;;;;;;;;;;1462638;40;6995;-60
2021/04/24 03:13:19;;;;;;;;;;;;;;;;;;1462711;40;7008;-60
2021/04/24 03:14:21;;;;;;;;;;;;;;;;;;1462514;40;7949;-60
2021/04/24 03:15:24;;;;;;;;;;;;;;;;;;1462681;40;7044;-60
2021/04/24 03:16:26;;;;;;;;;;;;;;;;;;1462463;40;7847;-60
2021/04/24 03:17:28;;;;;;;;;;;;;;;;;;1462693;40;7001;-60
2021/04/24 03:18:29;;;;;;;;;;;;;;;;;;1461689;40;7008;-60
2021/04/24 03:19:31;;;;;;;;;;;;;;;;;;1457611;40;7233;-60
2021/04/24 03:20:33;;;;;;;;;;;;;;;;;;1462082;40;7001;-59
2021/04/24 03:21:36;;;;;;;;;;;;;;;;;;1462821;40;7028;-60
2021/04/24 03:22:39;;;;;;;;;;;;;;;;;;1462341;40;7031;-60
2021/04/24 03:23:41;;;;;;;;;;;;;;;;;;1462408;40;7117;-60
2021/04/24 03:24:42;;;;;;;;;;;;;;;;;;1462617;40;7319;-60
2021/04/24 03:25:44;;;;;;;;;;;;;;;;;;1462918;40;7000;-59
2021/04/24 03:26:46;;;;;;;;;;;;;;;;;;1462563;40;7032;-61
2021/04/24 03:27:48;;;;;;;;;;;;;;;;;;1465195;40;7043;-60
2021/04/24 03:28:51;;;;;;;;;;;;;;;;;;1466667;40;7036;-60
2021/04/24 03:29:52;;;;;;;;;;;;;;;;;;1466486;40;7027;-60
2021/04/24 03:30:54;;;;;;;;;;;;;;;;;;1466603;40;7947;-60
2021/04/24 03:31:56;;;;;;;;;;;;;;;;;;1466482;40;6999;-60
2021/04/24 03:32:58;;;;;;;;;;;;;;;;;;1465922;40;7046;-60
2021/04/24 03:34:01;;;;;;;;;;;;;;;;;;1466657;40;6999;-60
2021/04/24 03:35:04;;;;;;;;;;;;;;;;;;1466983;40;7115;-60
2021/04/24 03:36:07;;;;;;;;;;;;;;;;;;1467113;40;6992;-60
2021/04/24 03:37:09;;;;;;;;;;;;;;;;;;1467035;40;7191;-60
2021/04/24 03:38:11;;;;;;;;;;;;;;;;;;1467089;40;7282;-60
2021/04/24 03:39:13;;;;;;;;;;;;;;;;;;1466596;40;7952;-60
2021/04/24 03:40:15;;;;;;;;;;;;;;;;;;1466757;40;7270;-60
2021/04/24 03:41:17;;;;;;;;;;;;;;;;;;1466470;40;7000;-60
2021/04/24 03:42:19;;;;;;;;;;;;;;;;;;1466932;40;7035;-60
2021/04/24 03:43:21;;;;;;;;;;;;;;;;;;1466722;40;7090;-60
2021/04/24 03:44:23;;;;;;;;;;;;;;;;;;1467005;40;7183;-60
2021/04/24 03:45:25;;;;;;;;;;;;;;;;;;1466761;40;6999;-61
2021/04/24 03:46:27;;;;;;;;;;;;;;;;;;1466574;40;7044;-60
2021/04/24 03:47:29;;;;;;;;;;;;;;;;;;1466484;40;7845;-60
2021/04/24 03:48:32;;;;;;;;;;;;;;;;;;1466947;40;8047;-60
2021/04/24 03:49:36;;;;;;;;;;;;;;;;;;1466921;40;7931;-60
2021/04/24 03:50:38;;;;;;;;;;;;;;;;;;1467170;40;7113;-59
2021/04/24 03:51:40;;;;;;;;;;;;;;;;;;1466580;40;6992;-60
2021/04/24 03:52:43;;;;;;;;;;;;;;;;;;1466643;40;7031;-60
2021/04/24 03:53:45;;;;;;;;;;;;;;;;;;1466881;40;7004;-60
2021/04/24 03:54:47;;;;;;;;;;;;;;;;;;1466747;40;7234;-60
2021/04/24 03:55:49;;;;;;;;;;;;;;;;;;1466520;40;6999;-60
2021/04/24 03:56:51;;;;;;;;;;;;;;;;;;1466690;40;7903;-60
2021/04/24 03:57:54;;;;;;;;;;;;;;;;;;1466898;40;7031;-60
2021/04/24 03:58:56;;;;;;;;;;;;;;;;;;1466997;40;7000;-60
2021/04/24 03:59:58;;;;;;;;;;;;;;;;;;1466886;40;7031;-60
2021/04/24 04:01:00;;;;;;;;;;;;;;;;;;1467866;40;7020;-60
2021/04/24 04:02:02;;;;;;;;;;;;;;;;;;1469749;40;7008;-59
2021/04/24 04:03:05;;;;;;;;;;;;;;;;;;1466909;40;6991;-60
2021/04/24 04:04:08;;;;;;;;;;;;;;;;;;1466663;40;6999;-61
2021/04/24 04:05:10;;;;;;;;;;;;;;;;;;1466951;40;7940;-59
2021/04/24 04:06:12;;;;;;;;;;;;;;;;;;1466308;40;7009;-60
2021/04/24 04:07:14;;;;;;;;;;;;;;;;;;1466261;40;6991;-60
2021/04/24 04:08:16;;;;;;;;;;;;;;;;;;1467052;40;7903;-60
2021/04/24 04:09:18;;;;;;;;;;;;;;;;;;1467072;40;7005;-61
2021/04/24 04:10:20;;;;;;;;;;;;;;;;;;1465966;40;7059;-60
2021/04/24 04:11:26;;;;;;;;;;;;;;;;;;1466765;40;7031;-60
2021/04/24 04:12:28;;;;;;;;;;;;;;;;;;1466999;40;7009;-60
2021/04/24 04:13:30;;;;;;;;;;;;;;;;;;1466377;40;7195;-60
2021/04/24 04:14:32;;;;;;;;;;;;;;;;;;1466653;40;6996;-60
2021/04/24 04:15:34;;;;;;;;;;;;;;;;;;1466354;40;7878;-60
2021/04/24 04:16:36;;;;;;;;;;;;;;;;;;1466247;40;7127;-61
2021/04/24 04:17:39;;;;;;;;;;;;;;;;;;1466395;40;6996;-60
2021/04/24 04:18:41;;;;;;;;;;;;;;;;;;1466097;40;7208;-60
2021/04/24 04:19:42;;;;;;;;;;;;;;;;;;1466953;40;7108;-60
2021/04/24 04:20:49;;;;;;;;;;;;;;;;;;1466653;40;7131;-60
2021/04/24 04:21:55;;;;;;;;;;;;;;;;;;1466729;40;7027;-60
2021/04/24 04:22:58;;;;;;;;;;;;;;;;;;1466381;40;6987;-61
2021/04/24 04:24:00;;;;;;;;;;;;;;;;;;1466450;40;6992;-60
2021/04/24 04:25:03;;;;;;;;;;;;;;;;;;1466434;40;7035;-60
2021/04/24 04:26:05;;;;;;;;;;;;;;;;;;1466321;40;7001;-60
2021/04/24 04:27:07;;;;;;;;;;;;;;;;;;1466432;40;7048;-60
2021/04/24 04:28:10;;;;;;;;;;;;;;;;;;1466712;40;7028;-60
2021/04/24 04:29:12;;;;;;;;;;;;;;;;;;1466744;40;6992;-61
2021/04/24 04:30:15;;;;;;;;;;;;;;;;;;1466829;40;7111;-60
2021/04/24 04:31:17;;;;;;;;;;;;;;;;;;1467120;40;7243;-60
2021/04/24 04:32:19;;;;;;;;;;;;;;;;;;1466359;40;7000;-60
2021/04/24 04:33:22;;;;;;;;;;;;;;;;;;1465803;40;7031;-61
2021/04/24 04:34:24;;;;;;;;;;;;;;;;;;1466660;40;6992;-60
2021/04/24 04:35:26;;;;;;;;;;;;;;;;;;1466654;40;7028;-60
2021/04/24 04:36:28;;;;;;;;;;;;;;;;;;1467028;40;7016;-60
2021/04/24 04:37:30;;;;;;;;;;;;;;;;;;1466862;40;7899;-59
2021/04/24 04:38:33;;;;;;;;;;;;;;;;;;1467262;40;7942;-60
2021/04/24 04:39:35;;;;;;;;;;;;;;;;;;1466725;40;7044;-61
2021/04/24 04:40:37;;;;;;;;;;;;;;;;;;1466340;40;7020;-60
2021/04/24 04:41:39;;;;;;;;;;;;;;;;;;1466502;40;6992;-60
2021/04/24 04:42:42;;;;;;;;;;;;;;;;;;1466565;40;7858;-60
2021/04/24 04:43:44;;;;;;;;;;;;;;;;;;1466315;40;7112;-61
2021/04/24 04:44:46;;;;;;;;;;;;;;;;;;1466594;40;7052;-61
2021/04/24 04:45:48;;;;;;;;;;;;;;;;;;1466629;40;7991;-60
2021/04/24 04:46:50;;;;;;;;;;;;;;;;;;1466600;40;6992;-60
2021/04/24 04:47:53;;;;;;;;;;;;;;;;;;1466763;40;7008;-60
2021/04/24 04:48:55;;;;;;;;;;;;;;;;;;1466804;40;6999;-60
2021/04/24 04:49:58;;;;;;;;;;;;;;;;;;1466661;40;7886;-61
2021/04/24 04:50:59;;;;;;;;;;;;;;;;;;1467052;40;7145;-60
2021/04/24 04:52:02;;;;;;;;;;;;;;;;;;1466369;40;7212;-60
2021/04/24 04:53:04;;;;;;;;;;;;;;;;;;1466507;40;7908;-61
2021/04/24 04:54:06;;;;;;;;;;;;;;;;;;1466446;40;7027;-60
2021/04/24 04:55:09;;;;;;;;;;;;;;;;;;1466600;40;8291;-60
2021/04/24 04:56:11;;;;;;;;;;;;;;;;;;1466406;40;7048;-60
2021/04/24 04:57:13;;;;;;;;;;;;;;;;;;1466571;40;7044;-60
2021/04/24 04:58:15;;;;;;;;;;;;;;;;;;1466849;40;7015;-60
2021/04/24 04:59:17;;;;;;;;;;;;;;;;;;1466726;40;7902;-61
2021/04/24 05:00:20;;;;;;;;;;;;;;;;;;1465969;40;7215;-61
2021/04/24 05:01:22;;;;;;;;;;;;;;;;;;1466575;40;7008;-60
2021/04/24 05:02:24;;;;;;;;;;;;;;;;;;1466541;40;7008;-61
2021/04/24 05:03:27;;;;;;;;;;;;;;;;;;1466593;40;7037;-59
2021/04/24 05:04:29;;;;;;;;;;;;;;;;;;1466429;40;7115;-60
2021/04/24 05:05:30;;;;;;;;;;;;;;;;;;1466810;40;7015;-60
2021/04/24 05:06:33;;;;;;;;;;;;;;;;;;1466856;40;7155;-60
2021/04/24 05:07:35;;;;;;;;;;;;;;;;;;1466957;40;7101;-60
2021/04/24 05:08:54;;;;;;;;;;;;;;;;;;1466497;40;7028;-60
2021/04/24 05:09:56;;;;;;;;;;;;;;;;;;1466682;40;7023;-61
2021/04/24 05:10:58;;;;;;;;;;;;;;;;;;1466443;40;7008;-60
2021/04/24 05:12:00;;;;;;;;;;;;;;;;;;1466533;40;7239;-60
2021/04/24 05:13:02;;;;;;;;;;;;;;;;;;1466551;40;7007;-59
2021/04/24 05:14:07;;;;;;;;;;;;;;;;;;1466536;40;6995;-60
2021/04/24 05:15:09;;;;;;;;;;;;;;;;;;1466400;40;7009;-60
2021/04/24 05:16:11;;;;;;;;;;;;;;;;;;1465842;40;7102;-60
2021/04/24 05:17:13;;;;;;;;;;;;;;;;;;1465920;40;7176;-60
2021/04/24 05:18:15;;;;;;;;;;;;;;;;;;1466212;40;7975;-59
2021/04/24 05:19:17;;;;;;;;;;;;;;;;;;1465500;40;7130;-60
2021/04/24 05:20:19;;;;;;;;;;;;;;;;;;1466312;40;7004;-60
2021/04/24 05:21:22;;;;;;;;;;;;;;;;;;1466105;40;7905;-60
2021/04/24 05:22:24;;;;;;;;;;;;;;;;;;1466420;40;7100;-60
2021/04/24 05:23:26;;;;;;;;;;;;;;;;;;1466317;40;7036;-61
2021/04/24 05:24:28;;;;;;;;;;;;;;;;;;1466303;40;7132;-60
2021/04/24 05:25:30;;;;;;;;;;;;;;;;;;1465515;40;6996;-60
2021/04/24 05:26:32;;;;;;;;;;;;;;;;;;1465526;40;7048;-60
2021/04/24 05:27:36;;;;;;;;;;;;;;;;;;1466094;40;7250;-60
2021/04/24 05:28:38;;;;;;;;;;;;;;;;;;1466358;40;7028;-60
2021/04/24 05:29:39;;;;;;;;;;;;;;;;;;1466844;40;7176;-60
2021/04/24 05:30:41;;;;;;;;;;;;;;;;;;1467257;40;7219;-60
2021/04/24 05:31:43;;;;;;;;;;;;;;;;;;1467045;40;7920;-60
2021/04/24 05:32:46;;;;;;;;;;;;;;;;;;1466416;40;7924;-61
2021/04/24 05:33:48;;;;;;;;;;;;;;;;;;1466477;40;6991;-60
2021/04/24 05:34:51;;;;;;;;;;;;;;;;;;1467125;40;7155;-60
2021/04/24 05:35:53;;;;;;;;;;;;;;;;;;1467205;40;7174;-60
2021/04/24 05:36:55;;;;;;;;;;;;;;;;;;1467010;40;7967;-60
2021/04/24 05:37:57;;;;;;;;;;;;;;;;;;1467335;40;7000;-60
2021/04/24 05:38:59;;;;;;;;;;;;;;;;;;1467954;40;7031;-60
2021/04/24 05:40:01;;;;;;;;;;;;;;;;;;1467433;40;7000;-59
2021/04/24 05:41:07;;;;;;;;;;;;;;;;;;1467299;40;7004;-60
2021/04/24 05:42:12;;;;;;;;;;;;;;;;;;1467338;40;7027;-60
2021/04/24 05:43:14;;;;;;;;;;;;;;;;;;1467186;40;7907;-60
2021/04/24 05:44:16;;;;;;;;;;;;;;;;;;1467003;40;6997;-60
2021/04/24 05:45:18;;;;;;;;;;;;;;;;;;1467447;40;7039;-60
2021/04/24 05:46:22;;;;;;;;;;;;;;;;;;1467177;40;7040;-60
2021/04/24 05:47:24;;;;;;;;;;;;;;;;;;1467454;40;7008;-60
2021/04/24 05:48:27;;;;;;;;;;;;;;;;;;1466548;40;7027;-61
2021/04/24 05:49:31;;;;;;;;;;;;;;;;;;1467246;40;7023;-60
2021/04/24 05:50:33;;;;;;;;;;;;;;;;;;1466767;40;6991;-60
2021/04/24 05:51:35;;;;;;;;;;;;;;;;;;1467332;40;7934;-60
2021/04/24 05:52:38;;;;;;;;;;;;;;;;;;1466945;40;7994;-60
2021/04/24 05:53:40;;;;;;;;;;;;;;;;;;1467060;40;7000;-60
2021/04/24 05:54:43;;;;;;;;;;;;;;;;;;1467143;40;7008;-60
2021/04/24 05:55:45;;;;;;;;;;;;;;;;;;1467496;40;7946;-60
2021/04/24 05:56:47;;;;;;;;;;;;;;;;;;1467099;40;7908;-60
2021/04/24 05:57:49;;;;;;;;;;;;;;;;;;1466961;40;8252;-60
2021/04/24 05:58:51;;;;;;;;;;;;;;;;;;1467081;40;7861;-60
2021/04/24 05:59:53;;;;;;;;;;;;;;;;;;1467434;40;7101;-60
2021/04/24 06:00:55;;;;;;;;;;;;;;;;;;1467329;40;7019;-61
2021/04/24 06:01:57;;;;;;;;;;;;;;;;;;1466880;40;7059;-60
2021/04/24 06:02:59;;;;;;;;;;;;;;;;;;1466823;40;6988;-60
2021/04/24 06:04:01;;;;;;;;;;;;;;;;;;1467207;40;7000;-60
2021/04/24 06:05:05;;;;;;;;;;;;;;;;;;1467024;40;7032;-60
2021/04/24 06:06:07;;;;;;;;;;;;;;;;;;1466914;40;6999;-60
2021/04/24 06:07:09;;;;;;;;;;;;;;;;;;1467012;40;7004;-60
2021/04/24 06:08:12;;;;;;;;;;;;;;;;;;1467000;40;7207;-60
2021/04/24 06:09:14;;;;;;;;;;;;;;;;;;1467040;40;7000;-60
2021/04/24 06:10:18;;;;;;;;;;;;;;;;;;1466888;40;7027;-60
2021/04/24 06:11:20;;;;;;;;;;;;;;;;;;1467357;40;7059;-60
2021/04/24 06:12:22;;;;;;;;;;;;;;;;;;1466670;40;7000;-60
2021/04/24 06:13:27;;;;;;;;;;;;;;;;;;1467081;40;7196;-60
2021/04/24 06:14:29;;;;;;;;;;;;;;;;;;1466924;40;7939;-60
2021/04/24 06:15:31;;;;;;;;;;;;;;;;;;1466533;40;7000;-61
2021/04/24 06:16:32;;;;;;;;;;;;;;;;;;1466499;40;7059;-60
2021/04/24 06:17:34;;;;;;;;;;;;;;;;;;1466543;40;8460;-60
2021/04/24 06:18:36;;;;;;;;;;;;;;;;;;1466421;40;7939;-60
2021/04/24 06:19:39;;;;;;;;;;;;;;;;;;1466007;40;6992;-61
2021/04/24 06:20:40;;;;;;;;;;;;;;;;;;1467007;40;7179;-60
2021/04/24 06:21:43;;;;;;;;;;;;;;;;;;1466655;40;7031;-60
2021/04/24 06:22:45;;;;;;;;;;;;;;;;;;1466585;40;7031;-60
2021/04/24 06:23:47;;;;;;;;;;;;;;;;;;1466620;40;7359;-59
2021/04/24 06:24:49;;;;;;;;;;;;;;;;;;1466849;40;7868;-60
2021/04/24 06:25:51;;;;;;;;;;;;;;;;;;1466825;40;7001;-60
2021/04/24 06:26:53;;;;;;;;;;;;;;;;;;1466629;40;7991;-61
2021/04/24 06:27:55;;;;;;;;;;;;;;;;;;1466736;40;8827;-61
2021/04/24 06:28:57;;;;;;;;;;;;;;;;;;1466924;40;7036;-60
2021/04/24 06:29:59;;;;;;;;;;;;;;;;;;1466841;40;7000;-60
2021/04/24 06:31:01;;;;;;;;;;;;;;;;;;1466845;40;8962;-60
2021/04/24 06:32:03;;;;;;;;;;;;;;;;;;1466562;40;7035;-61
2021/04/24 06:33:05;;;;;;;;;;;;;;;;;;1466115;40;7121;-60
2021/04/24 06:34:07;;;;;;;;;;;;;;;;;;1466337;40;6992;-60
2021/04/24 06:35:10;;;;;;;;;;;;;;;;;;1467213;40;7962;-60
2021/04/24 06:36:12;;;;;;;;;;;;;;;;;;1466625;40;7000;-60
2021/04/24 06:37:14;;;;;;;;;;;;;;;;;;1466874;40;7137;-60
2021/04/24 06:38:16;;;;;;;;;;;;;;;;;;1466794;40;7031;-60
2021/04/24 06:39:18;;;;;;;;;;;;;;;;;;1467173;40;7913;-60
2021/04/24 06:40:20;;;;;;;;;;;;;;;;;;1466810;40;7000;-60
2021/04/24 06:41:22;;;;;;;;;;;;;;;;;;1466075;40;7032;-60
2021/04/24 06:42:24;;;;;;;;;;;;;;;;;;1466712;40;6992;-61
2021/04/24 06:43:26;;;;;;;;;;;;;;;;;;1467329;40;7037;-60
2021/04/24 06:44:28;;;;;;;;;;;;;;;;;;1467292;40;7019;-61
2021/04/24 06:45:30;;;;;;;;;;;;;;;;;;1466400;40;7877;-60
2021/04/24 06:46:31;;;;;;;;;;;;;;;;;;1466847;40;7009;-60
2021/04/24 06:47:34;;;;;;;;;;;;;;;;;;1466983;40;7115;-60
2021/04/24 06:48:36;;;;;;;;;;;;;;;;;;1467088;40;7023;-60
2021/04/24 06:49:38;;;;;;;;;;;;;;;;;;1467094;40;7128;-60
2021/04/24 06:50:40;;;;;;;;;;;;;;;;;;1467098;40;7819;-60
2021/04/24 06:51:42;;;;;;;;;;;;;;;;;;1466596;40;7984;-60
2021/04/24 06:52:44;;;;;;;;;;;;;;;;;;1466713;40;7019;-61
2021/04/24 06:53:46;;;;;;;;;;;;;;;;;;1467270;40;7079;-60
2021/04/24 06:54:48;;;;;;;;;;;;;;;;;;1466786;40;6991;-60
2021/04/24 06:55:51;;;;;;;;;;;;;;;;;;1466710;40;7127;-60
2021/04/24 06:56:53;;;;;;;;;;;;;;;;;;1466941;40;7027;-60
2021/04/24 06:57:55;;;;;;;;;;;;;;;;;;1466909;40;9178;-61
2021/04/24 06:58:57;;;;;;;;;;;;;;;;;;1466789;40;7015;-61
2021/04/24 06:59:59;;;;;;;;;;;;;;;;;;1467101;40;7023;-60
2021/04/24 07:01:01;;;;;;;;;;;;;;;;;;1466828;40;6992;-61
2021/04/24 07:02:03;;;;;;;;;;;;;;;;;;1465926;40;7802;-61
2021/04/24 07:03:05;;;;;;;;;;;;;;;;;;1466274;40;7027;-61
2021/04/24 07:04:07;;;;;;;;;;;;;;;;;;1466893;40;6995;-61
2021/04/24 07:05:10;;;;;;;;;;;;;;;;;;1466931;40;7031;-60
2021/04/24 07:06:12;;;;;;;;;;;;;;;;;;1466721;40;7137;-60
2021/04/24 07:07:14;;;;;;;;;;;;;;;;;;1467106;40;7041;-61
2021/04/24 07:08:16;;;;;;;;;;;;;;;;;;1467346;40;7056;-61
2021/04/24 07:09:18;;;;;;;;;;;;;;;;;;1467107;40;7904;-61
2021/04/24 07:10:20;;;;;;;;;;;;;;;;;;1466999;40;7027;-60
2021/04/24 07:11:22;;;;;;;;;;;;;;;;;;1466778;40;7222;-61
2021/04/24 07:12:24;;;;;;;;;;;;;;;;;;1466699;40;7039;-61
2021/04/24 07:13:26;;;;;;;;;;;;;;;;;;1466822;40;7028;-60
2021/04/24 07:14:28;;;;;;;;;;;;;;;;;;1466748;40;7028;-61